Latest  Newer  Older  Last 2 hours slideshow  Last 24 hours slideshow  Refresh every 5 minutes 
Current image  Latest image  Rain/snow radar  Cloud coverage sat images 

All time is UTC (add 2 hours to UTC in wintertime, 3 hours to UTC in DST for Latvia local time)

2021/10/25 01:50 EVRA 250150Z 18009KT CAVOK 02/02 Q1025 R18/190095 NOSIG
2021/10/25 01:50 EVLA 250150Z AUTO 22012KT 9999 BKN044/// 09/04 Q1024
2021/10/25 01:50 EVVA 250150Z AUTO 24010KT 9999 OVC040 10/04 Q1023
2021/10/25 01:50 EYKA 250150Z 17003KT CAVOK 01/M00 Q1029
2021/10/25 01:50 EYPA 250150Z 22008KT 180V250 9999 FEW024 BKN040 10/05 Q1025
2021/10/25 01:50 EYSA 250150Z 20010KT CAVOK 03/02 Q1027 NOSIG
2021/10/25 01:50 EYVI 250150Z 18006KT CAVOK M02/M02 Q1029 NOSIG

2021/10/25 01:50 EEKE 250150Z AUTO 25009KT 190V300 9999NDV BKN021 09/06 Q1021

2021/10/25 01:50 EETN 250150Z 22013KT 9999 BKN011 09/07 Q1017
2021/10/25 01:50 EETU 250150Z AUTO 22014KT 9999 BKN026/// OVC049/// 06/04 Q1021 RESHUP
   RIGA AIRPORT     EVRA               56 55N  023 58E   10   X     T          6 LV
   LIEPAJA INTL     EVLA        26406  56 31N  021 06E    4   X                8 LV
   VENTPILS         EVVA               57 21N  021 33E    6   X                8 LV
   KAUNAS           EYKA               54 54N  023 55E   77   X     T          6 LT
   PALANGA INTL     EYPA               55 55N  021 03E   10   X                6 LT
   SIAULIAI INTL    EYSA               55 54N  023 24E  135   X     T          6 LT
   VILNIUS INTL     EYVI        26730  54 38N  025 17E  197   X     T          6 LT
   KARDLA           EEKA        26116  58 59N  022 50E    4   X                8 EE
   KURESSAARE       EEKE               58 14N  022 31E    4   X                8 EE
   PARNU            EEPU               58 25N  024 28E   14   X                8 EE
   TALLINN          EETN        26038  59 24N  024 49E   40   X     T          8 EE
   TARTU            EETU               58 19N  026 41E   67   X                8 EE